Weather reports worldwide

Advertisment
Monte Cimone, Italy (16134): temperature & dewpoint: 15.01.2018 04:00:00 - 21.01.2018 04:00:00 (CET)Monte Cimone, Italy (16134): wind speed: 15.01.2018 04:00:00 - 21.01.2018 04:00:00 (CET)Monte Cimone, Italy (16134): wind direction: 15.01.2018 04:00:00 - 21.01.2018 04:00:00 (CET)Monte Cimone, Italy (16134): visibility: 15.01.2018 04:00:00 - 21.01.2018 04:00:00 (CET)Monte Cimone, Italy (16134): sunshine duration: 15.01.2018 04:00:00 - 21.01.2018 04:00:00 (CET)
Date & Time tt [°C] td [°C] ff [km/h] ff [kn] dd vv [km] sd [min]
21.01.2018 04:00:00 - - - - - - -
21.01.2018 03:00:00 -1,0 -1,3 18 10 W - -
21.01.2018 02:00:00 -1,0 -1,4 22 12 W - -
21.01.2018 01:00:00 -1,2 -1,6 29 16 WSW - -
21.01.2018 00:00:00 -2,2 -2,6 28 15 WSW - -
20.01.2018 23:00:00 -2,8 -3,3 24 13 W - -
20.01.2018 22:00:00 -2,2 -3,8 22 12 SW 30 -
20.01.2018 21:00:00 -3,6 -7,5 21 11 SW 30 -
20.01.2018 20:00:00 -3,0 -4,7 13 7 WNW - -
20.01.2018 19:00:00 -3,4 -6,4 34 18 SW 50 -
20.01.2018 18:00:00 -2,4 -7,1 13 7 E 50 -
20.01.2018 17:00:00 -2,8 -8,8 11 6 ESE 50 0
20.01.2018 16:00:00 -2,6 -9,3 11 6 WSW 50 0
20.01.2018 15:00:00 -2,0 -7,7 8 4 S 50 30
20.01.2018 14:00:00 -2,0 -7,7 5 3 SW 50 60
20.01.2018 13:00:00 -2,0 -8,7 11 6 WSW 50 60
20.01.2018 12:00:00 -3,0 -10,3 28 15 WNW 50 60
20.01.2018 11:00:00 -4,8 -11,8 26 14 WNW 50 60
20.01.2018 10:00:00 -5,4 -14,2 26 14 NNW 50 60
20.01.2018 09:00:00 -5,4 -12,1 35 19 NNW 50 60
20.01.2018 08:00:00 -3,6 -10,0 41 22 NNW 50 -
20.01.2018 07:00:00 -3,6 -9,4 29 16 NNW 50 -
20.01.2018 06:00:00 -3,8 -10,0 29 16 WNW 50 -
20.01.2018 05:00:00 -2,8 -8,8 21 11 WNW 50 -
20.01.2018 04:00:00 -2,8 -8,5 18 10 WNW 50 -
20.01.2018 03:00:00 -2,8 -8,6 24 13 WNW 50 -
20.01.2018 02:00:00 -2,8 -8,8 16 9 WNW 50 -
20.01.2018 01:00:00 -2,8 -8,6 9 5 WNW 50 -
20.01.2018 00:00:00 -2,4 -8,3 9 5 NNW 50 -
19.01.2018 23:00:00 -3,2 -12,1 9 5 NNW 50 -
19.01.2018 22:00:00 -3,0 -8,1 11 6 NNW 50 -
19.01.2018 21:00:00 -3,0 -8,1 11 6 NNW 50 -
19.01.2018 20:00:00 -3,2 -7,0 21 11 NNW 50 -
19.01.2018 19:00:00 -2,0 -3,1 18 10 NNW 30 -
19.01.2018 18:00:00 -1,0 -3,4 29 16 NNW 30 0
19.01.2018 17:00:00 -0,2 -2,1 18 10 W 0,3 0
19.01.2018 16:00:00 0,0 -2,1 26 14 WSW 0,3 0
19.01.2018 15:00:00 0,0 -1,0 15 8 WSW - 0
19.01.2018 14:00:00 -0,2 -0,8 9 5 N - 0
19.01.2018 13:00:00 -0,4 -1,0 11 6 NNW - 0
19.01.2018 12:00:00 -0,4 -1,1 13 7 NNE - 0
19.01.2018 11:00:00 -0,4 -1,1 15 8 W - 0
19.01.2018 10:00:00 -0,2 -1,6 22 12 WSW - 0
19.01.2018 09:00:00 -0,6 -1,3 11 6 WNW - 0
19.01.2018 08:00:00 -0,2 -1,2 15 8 SW - 0
19.01.2018 07:00:00 -1,0 -1,6 11 6 NNE - -
19.01.2018 06:00:00 -0,8 -1,5 15 8 SSW - -
19.01.2018 05:00:00 -0,2 -1,8 24 13 SW - -
19.01.2018 04:00:00 -0,2 -2,1 16 9 WSW - -
19.01.2018 03:00:00 -0,2 -2,6 46 25 SW 0,2 -
19.01.2018 02:00:00 -0,2 -1,8 29 16 SW - -
19.01.2018 01:00:00 -1,0 -2,1 15 8 W - -
19.01.2018 00:00:00 -0,4 -1,8 21 11 SW - -
18.01.2018 23:00:00 -1,2 -2,0 13 7 N - -
18.01.2018 22:00:00 -1,2 -2,3 22 12 SW - -
18.01.2018 21:00:00 -1,8 -2,5 22 12 WSW - -
18.01.2018 20:00:00 -1,4 -2,7 21 11 WSW - -
18.01.2018 19:00:00 -0,4 -1,5 21 11 SW - -
18.01.2018 18:00:00 -2,0 -3,7 37 20 SSW - 0
18.01.2018 17:00:00 -0,8 -3,6 29 16 SW 1,2 0
18.01.2018 16:00:00 -1,4 -3,4 21 11 WSW 1,2 24
18.01.2018 15:00:00 -0,6 -4,5 34 18 SW 25 60
18.01.2018 14:00:00 -1,6 -5,3 37 20 WSW 30 6
18.01.2018 13:00:00 -2,0 -6,0 52 28 WSW 70 24
18.01.2018 12:00:00 -3,0 -6,0 29 16 SW 70 60
18.01.2018 11:00:00 -2,8 -6,3 21 11 WSW 70 60
18.01.2018 10:00:00 -3,0 -7,0 24 13 SW 70 60
18.01.2018 09:00:00 -3,8 -8,1 18 10 WSW 70 54
18.01.2018 08:00:00 -4,2 -10,4 18 10 WSW 70 -
18.01.2018 07:00:00 -4,4 -10,6 13 7 SW 70 -
18.01.2018 06:00:00 -4,8 -12,2 34 18 WSW 70 -
18.01.2018 05:00:00 -4,8 -12,2 31 17 WSW 70 -
18.01.2018 04:00:00 -4,8 -11,6 29 16 WNW 70 -
18.01.2018 03:00:00 -5,4 -12,8 42 23 WNW 70 -
18.01.2018 02:00:00 -5,4 -11,7 41 22 W 70 -
18.01.2018 01:00:00 -7,4 -15,1 44 24 NW 70 -
18.01.2018 00:00:00 -7,8 -16,4 55 30 NNW 70 -
17.01.2018 23:00:00 -7,6 -14,4 63 34 NNW 70 -
17.01.2018 22:00:00 -7,2 -13,0 52 28 NNW 70 -
17.01.2018 21:00:00 -7,4 -12,8 54 29 NNW 70 -
17.01.2018 20:00:00 -7,2 -14,5 50 27 NNW 30 -
17.01.2018 19:00:00 -7,0 -13,0 37 20 NNW 50 -
17.01.2018 18:00:00 -7,2 -13,2 54 29 NNW 50 0
17.01.2018 17:00:00 -6,2 -11,1 68 37 NNW 30 60
17.01.2018 16:00:00 -5,0 -8,4 72 39 NNW 30 54
17.01.2018 15:00:00 -4,6 -9,2 42 23 NNW 30 18
17.01.2018 14:00:00 -2,8 -8,1 48 26 NNW 30 60
17.01.2018 13:00:00 -2,8 -7,7 44 24 NNW 30 60
17.01.2018 12:00:00 -2,4 -7,9 50 27 NNW 25 60
17.01.2018 11:00:00 0,8 -3,9 52 28 WNW 20 54
17.01.2018 10:00:00 0,0 -3,0 59 32 WNW 15 36
17.01.2018 09:00:00 0,2 -2,5 29 16 W 0,2 0
17.01.2018 08:00:00 0,4 -1,7 39 21 W - 0
17.01.2018 07:00:00 0,8 -1,1 39 21 WSW - -
17.01.2018 06:00:00 1,2 -0,3 39 21 WSW - -
17.01.2018 05:00:00 1,6 0,0 50 27 WSW - -
17.01.2018 04:00:00 1,4 -0,1 34 18 W - -
17.01.2018 03:00:00 1,8 0,2 46 25 WSW - -
17.01.2018 02:00:00 1,8 0,0 34 18 WSW - -
17.01.2018 01:00:00 2,0 0,2 29 16 WSW - -
17.01.2018 00:00:00 1,6 0,0 18 10 SSW - -
16.01.2018 23:00:00 1,4 -0,1 24 13 WSW - -
16.01.2018 22:00:00 0,8 -0,5 15 8 NE - -
16.01.2018 21:00:00 0,4 -0,9 18 10 W - -
16.01.2018 20:00:00 0,4 -0,8 24 13 WSW - -
16.01.2018 19:00:00 0,0 -1,0 26 14 WSW - -
16.01.2018 18:00:00 0,2 -1,0 24 13 W - 0
16.01.2018 17:00:00 0,2 -1,1 42 23 WSW - 0
16.01.2018 16:00:00 -0,2 -1,0 34 18 WSW - 0
16.01.2018 15:00:00 -0,4 -1,1 39 21 WSW - 0
16.01.2018 14:00:00 -0,8 -1,5 29 16 W - 0
16.01.2018 13:00:00 -1,0 -1,7 34 18 WSW - 0
16.01.2018 12:00:00 -1,4 -2,1 22 12 W - 0
16.01.2018 11:00:00 -1,4 -2,1 26 14 W - 0
16.01.2018 10:00:00 -1,8 -2,6 15 8 NNW - 0
16.01.2018 09:00:00 -2,0 -2,7 29 16 WNW - 0
16.01.2018 08:00:00 -2,0 -2,8 34 18 W - 0
16.01.2018 07:00:00 -2,0 -2,8 22 12 WSW - -
16.01.2018 06:00:00 -2,6 -3,4 34 18 WSW - -
16.01.2018 05:00:00 -2,6 -3,4 28 15 W - -
16.01.2018 04:00:00 -2,4 -3,2 21 11 NNW - -
16.01.2018 03:00:00 -2,6 -3,4 22 12 W - -
16.01.2018 02:00:00 -2,6 -3,3 15 8 NNW - -
16.01.2018 01:00:00 -2,6 -3,4 26 14 W - -
16.01.2018 00:00:00 -2,4 -3,5 16 9 NW - -
15.01.2018 23:00:00 -2,4 -3,5 11 6 N - -
15.01.2018 22:00:00 -2,6 -3,7 11 6 N - -
15.01.2018 21:00:00 -2,6 -4,0 15 8 NW - -
15.01.2018 20:00:00 -2,6 -4,0 34 18 NW - -
15.01.2018 19:00:00 -2,6 -4,2 24 13 NW - -
15.01.2018 18:00:00 -2,4 -4,0 28 15 W - -
15.01.2018 17:00:00 -2,8 -4,5 21 11 W - 0
15.01.2018 16:00:00 -3,0 -4,9 13 7 W - 0
15.01.2018 15:00:00 -2,6 -4,6 13 7 W - 0
15.01.2018 14:00:00 -2,8 -4,7 15 8 W - 0
15.01.2018 13:00:00 -2,4 -4,7 22 12 WSW - 0
15.01.2018 12:00:00 -2,4 -4,6 18 10 WSW - 0
15.01.2018 11:00:00 -2,2 -4,7 18 10 WSW 20 0
15.01.2018 10:00:00 -2,4 -5,0 15 8 W 20 30
15.01.2018 09:00:00 -2,0 -4,5 16 9 W 30 18
15.01.2018 08:00:00 -2,0 -4,3 16 9 W 30 0
15.01.2018 07:00:00 -2,0 -4,3 18 10 WNW 30 -
15.01.2018 06:00:00 -2,2 -4,2 22 12 W 40 -
15.01.2018 05:00:00 -2,4 -4,1 26 14 WNW 40 -
15.01.2018 04:00:00 -2,8 -5,1 21 11 NW 40 -

tt = temperature
td = dewpoint
ff = wind speed
dd = wind direction
vv = visibility
sd = sunshine duration

Next stations